sensor_id;sensor_type;location;lat;lon;timestamp;pressure;altitude;pressure_sealevel;temperature;humidity
72925;BME280;61070;50.794;7.054;2023-07-29T00:00:13;100059.28;;;19.51;100.00
72925;BME280;61070;50.794;7.054;2023-07-29T00:00:43;100059.38;;;19.49;100.00
72925;BME280;61070;50.794;7.054;2023-07-29T00:01:14;100062.72;;;19.53;100.00
72925;BME280;61070;50.794;7.054;2023-07-29T00:01:44;100056.41;;;19.54;100.00
72925;BME280;61070;50.794;7.054;2023-07-29T00:02:15;100057.25;;;19.54;100.00
72925;BME280;61070;50.794;7.054;2023-07-29T00:02:45;100054.56;;;19.54;100.00
72925;BME280;61070;50.794;7.054;2023-07-29T00:03:15;100051.03;;;19.54;100.00
72925;BME280;61070;50.794;7.054;2023-07-29T00:03:46;100053.56;;;19.57;100.00
72925;BME280;61070;50.794;7.054;2023-07-29T00:04:16;100059.88;;;19.56;100.00
72925;BME280;61070;50.794;7.054;2023-07-29T00:04:46;100049.66;;;19.62;100.00
72925;BME280;61070;50.794;7.054;2023-07-29T00:05:17;100046.19;;;19.60;100.00
72925;BME280;61070;50.794;7.054;2023-07-29T00:05:47;100048.03;;;19.60;100.00
72925;BME280;61070;50.794;7.054;2023-07-29T00:06:18;100046.34;;;19.57;100.00
72925;BME280;61070;50.794;7.054;2023-07-29T00:06:48;100048.78;;;19.62;100.00
72925;BME280;61070;50.794;7.054;2023-07-29T00:07:18;100043.50;;;19.60;100.00
72925;BME280;61070;50.794;7.054;2023-07-29T00:07:49;100046.19;;;19.60;100.00
72925;BME280;61070;50.794;7.054;2023-07-29T00:08:19;100049.91;;;19.58;100.00
72925;BME280;61070;50.794;7.054;2023-07-29T00:08:49;100046.19;;;19.60;100.00
72925;BME280;61070;50.794;7.054;2023-07-29T00:09:19;100042.72;;;19.58;100.00
72925;BME280;61070;50.794;7.054;2023-07-29T00:09:50;100043.56;;;19.59;100.00
72925;BME280;61070;50.794;7.054;2023-07-29T00:10:20;100044.63;;;19.56;100.00
72925;BME280;61070;50.794;7.054;2023-07-29T00:10:50;100048.28;;;19.55;100.00
72925;BME280;61070;50.794;7.054;2023-07-29T00:11:21;100047.38;;;19.55;100.00
72925;BME280;61070;50.794;7.054;2023-07-29T00:11:51;100042.91;;;19.55;100.00
72925;BME280;61070;50.794;7.054;2023-07-29T00:12:21;100054.50;;;19.56;100.00
72925;BME280;61070;50.794;7.054;2023-07-29T00:12:52;100046.44;;;19.56;100.00
72925;BME280;61070;50.794;7.054;2023-07-29T00:13:22;100044.63;;;19.56;100.00
72925;BME280;61070;50.794;7.054;2023-07-29T00:13:53;100048.34;;;19.54;100.00
72925;BME280;61070;50.794;7.054;2023-07-29T00:14:23;100041.34;;;19.51;100.00
72925;BME280;61070;50.794;7.054;2023-07-29T00:14:53;100043.16;;;19.51;100.00
72925;BME280;61070;50.794;7.054;2023-07-29T00:15:24;100057.09;;;19.57;100.00
72925;BME280;61070;50.794;7.054;2023-07-29T00:15:55;100043.91;;;19.53;100.00
72925;BME280;61070;50.794;7.054;2023-07-29T00:16:28;100048.34;;;19.54;100.00
72925;BME280;61070;50.794;7.054;2023-07-29T00:16:58;100044.00;;;19.51;100.00
72925;BME280;61070;50.794;7.054;2023-07-29T00:17:28;100041.22;;;19.53;100.00
72925;BME280;61070;50.794;7.054;2023-07-29T00:17:59;100050.88;;;19.57;100.00
72925;BME280;61070;50.794;7.054;2023-07-29T00:18:29;100037.69;;;19.52;100.00
72925;BME280;61070;50.794;7.054;2023-07-29T00:18:59;100039.50;;;19.52;100.00
72925;BME280;61070;50.794;7.054;2023-07-29T00:19:30;100043.91;;;19.53;100.00
72925;BME280;61070;50.794;7.054;2023-07-29T00:20:00;100041.13;;;19.54;100.00
72925;BME280;61070;50.794;7.054;2023-07-29T00:20:30;100040.28;;;19.54;100.00
72925;BME280;61070;50.794;7.054;2023-07-29T00:21:01;100038.28;;;19.57;100.00
72925;BME280;61070;50.794;7.054;2023-07-29T00:21:31;100043.75;;;19.56;100.00
72925;BME280;61070;50.794;7.054;2023-07-29T00:22:01;100041.13;;;19.54;100.00
72925;BME280;61070;50.794;7.054;2023-07-29T00:22:31;100043.81;;;19.54;100.00
72925;BME280;61070;50.794;7.054;2023-07-29T00:23:02;100052.75;;;19.55;100.00
72925;BME280;61070;50.794;7.054;2023-07-29T00:23:32;100043.56;;;19.59;100.00
72925;BME280;61070;50.794;7.054;2023-07-29T00:24:03;100044.97;;;19.50;100.00
72925;BME280;61070;50.794;7.054;2023-07-29T00:24:33;100037.00;;;19.48;100.00
72925;BME280;61070;50.794;7.054;2023-07-29T00:25:03;100043.25;;;19.49;100.00
72925;BME280;61070;50.794;7.054;2023-07-29T00:25:34;100038.84;;;19.48;100.00
72925;BME280;61070;50.794;7.054;2023-07-29T00:26:04;100040.38;;;19.52;100.00
72925;BME280;61070;50.794;7.054;2023-07-29T00:26:34;100044.97;;;19.50;100.00
72925;BME280;61070;50.794;7.054;2023-07-29T00:27:05;100031.63;;;19.48;100.00
72925;BME280;61070;50.794;7.054;2023-07-29T00:27:35;100040.47;;;19.51;100.00
72925;BME280;61070;50.794;7.054;2023-07-29T00:28:06;100033.47;;;19.48;100.00
72925;BME280;61070;50.794;7.054;2023-07-29T00:28:36;100040.56;;;19.49;100.00
72925;BME280;61070;50.794;7.054;2023-07-29T00:29:06;100031.19;;;19.56;100.00
72925;BME280;61070;50.794;7.054;2023-07-29T00:29:37;100038.63;;;19.51;100.00
72925;BME280;61070;50.794;7.054;2023-07-29T00:30:07;100042.19;;;19.52;100.00
72925;BME280;61070;50.794;7.054;2023-07-29T00:30:38;100039.50;;;19.52;100.00
72925;BME280;61070;50.794;7.054;2023-07-29T00:31:08;100036.81;;;19.52;100.00
72925;BME280;61070;50.794;7.054;2023-07-29T00:31:38;100032.31;;;19.52;100.00
72925;BME280;61070;50.794;7.054;2023-07-29T00:32:09;100031.44;;;19.52;100.00
72925;BME280;61070;50.794;7.054;2023-07-29T00:32:39;100044.78;;;19.53;100.00
72925;BME280;61070;50.794;7.054;2023-07-29T00:33:09;100038.63;;;19.51;100.00
72925;BME280;61070;50.794;7.054;2023-07-29T00:33:39;100035.09;;;19.51;100.00
72925;BME280;61070;50.794;7.054;2023-07-29T00:34:10;100040.47;;;19.51;100.00
72925;BME280;61070;50.794;7.054;2023-07-29T00:34:40;100039.59;;;19.50;100.00
72925;BME280;61070;50.794;7.054;2023-07-29T00:35:10;100036.81;;;19.52;100.00
72925;BME280;61070;50.794;7.054;2023-07-29T00:35:41;100033.38;;;19.49;100.00
72925;BME280;61070;50.794;7.054;2023-07-29T00:36:11;100035.09;;;19.51;100.00
72925;BME280;61070;50.794;7.054;2023-07-29T00:36:42;100037.78;;;19.51;100.00
72925;BME280;61070;50.794;7.054;2023-07-29T00:37:12;100030.69;;;19.49;100.00
72925;BME280;61070;50.794;7.054;2023-07-29T00:37:42;100033.38;;;19.49;100.00
72925;BME280;61070;50.794;7.054;2023-07-29T00:38:12;100033.47;;;19.48;100.00
72925;BME280;61070;50.794;7.054;2023-07-29T00:38:43;100029.81;;;19.49;100.00
72925;BME280;61070;50.794;7.054;2023-07-29T00:39:13;100030.78;;;19.48;100.00
72925;BME280;61070;50.794;7.054;2023-07-29T00:39:43;100033.28;;;19.51;100.00
72925;BME280;61070;50.794;7.054;2023-07-29T00:40:23;100034.13;;;19.52;100.00
72925;BME280;61070;50.794;7.054;2023-07-29T00:40:53;100034.91;;;19.54;100.00
72925;BME280;61070;50.794;7.054;2023-07-29T00:41:23;100033.19;;;19.53;100.00
72925;BME280;61070;50.794;7.054;2023-07-29T00:41:54;100040.97;;;19.57;100.00
72925;BME280;61070;50.794;7.054;2023-07-29T00:42:25;100028.66;;;19.53;100.00
72925;BME280;61070;50.794;7.054;2023-07-29T00:42:55;100037.69;;;19.52;100.00
72925;BME280;61070;50.794;7.054;2023-07-29T00:43:25;100031.44;;;19.52;100.00
72925;BME280;61070;50.794;7.054;2023-07-29T00:43:56;100030.69;;;19.49;100.00
72925;BME280;61070;50.794;7.054;2023-07-29T00:44:27;100028.75;;;19.52;100.00
72925;BME280;61070;50.794;7.054;2023-07-29T00:44:57;100026.06;;;19.52;100.00
72925;BME280;61070;50.794;7.054;2023-07-29T00:45:29;100030.47;;;19.53;100.00
72925;BME280;61070;50.794;7.054;2023-07-29T00:46:00;100027.91;;;19.51;100.00
72925;BME280;61070;50.794;7.054;2023-07-29T00:46:33;100025.81;;;19.56;100.00
72925;BME280;61070;50.794;7.054;2023-07-29T00:47:05;100026.84;;;19.54;100.00
72925;BME280;61070;50.794;7.054;2023-07-29T00:47:37;100028.66;;;19.53;100.00
72925;BME280;61070;50.794;7.054;2023-07-29T00:48:08;100027.03;;;19.51;100.00
72925;BME280;61070;50.794;7.054;2023-07-29T00:48:38;100021.56;;;19.52;100.00
72925;BME280;61070;50.794;7.054;2023-07-29T00:49:09;100024.34;;;19.51;100.00
72925;BME280;61070;50.794;7.054;2023-07-29T00:49:39;100031.44;;;19.52;100.00
72925;BME280;61070;50.794;7.054;2023-07-29T00:50:11;100025.41;;;19.48;100.00
72925;BME280;61070;50.794;7.054;2023-07-29T00:50:42;100022.63;;;19.49;100.00
72925;BME280;61070;50.794;7.054;2023-07-29T00:51:12;100022.72;;;19.48;100.00
72925;BME280;61070;50.794;7.054;2023-07-29T00:51:42;100020.09;;;19.46;100.00
72925;BME280;61070;50.794;7.054;2023-07-29T00:52:13;100023.63;;;19.47;100.00
72925;BME280;61070;50.794;7.054;2023-07-29T00:52:43;100021.03;;;19.45;100.00
72925;BME280;61070;50.794;7.054;2023-07-29T00:53:14;100024.59;;;19.46;100.00
72925;BME280;61070;50.794;7.054;2023-07-29T00:53:44;100027.19;;;19.47;100.00
72925;BME280;61070;50.794;7.054;2023-07-29T00:54:14;100025.47;;;19.46;100.00
72925;BME280;61070;50.794;7.054;2023-07-29T00:54:45;100030.78;;;19.48;100.00
72925;BME280;61070;50.794;7.054;2023-07-29T00:55:15;100026.25;;;19.48;100.00
72925;BME280;61070;50.794;7.054;2023-07-29T00:55:46;100024.50;;;19.47;100.00
72925;BME280;61070;50.794;7.054;2023-07-29T00:56:16;100020.94;;;19.47;100.00
72925;BME280;61070;50.794;7.054;2023-07-29T00:56:46;100031.69;;;19.47;100.00
72925;BME280;61070;50.794;7.054;2023-07-29T00:57:17;100020.28;;;19.43;100.00
72925;BME280;61070;50.794;7.054;2023-07-29T00:57:50;100019.31;;;19.44;100.00
72925;BME280;61070;50.794;7.054;2023-07-29T00:58:21;100019.06;;;19.49;100.00
72925;BME280;61070;50.794;7.054;2023-07-29T00:58:52;100016.44;;;19.47;100.00
72925;BME280;61070;50.794;7.054;2023-07-29T00:59:28;100018.97;;;19.51;100.00
72925;BME280;61070;50.794;7.054;2023-07-29T01:00:01;100027.44;;;19.59;100.00
72925;BME280;61070;50.794;7.054;2023-07-29T01:00:31;100019.66;;;19.54;100.00
72925;BME280;61070;50.794;7.054;2023-07-29T01:01:01;100012.72;;;19.50;100.00
72925;BME280;61070;50.794;7.054;2023-07-29T01:01:32;100011.69;;;19.53;100.00
72925;BME280;61070;50.794;7.054;2023-07-29T01:02:02;100015.13;;;19.55;100.00
72925;BME280;61070;50.794;7.054;2023-07-29T01:02:33;100017.06;;;19.53;100.00
72925;BME280;61070;50.794;7.054;2023-07-29T01:03:04;100014.38;;;19.53;100.00
72925;BME280;61070;50.794;7.054;2023-07-29T01:03:35;100012.63;;;19.52;100.00
72925;BME280;61070;50.794;7.054;2023-07-29T01:04:06;100014.38;;;19.53;100.00
72925;BME280;61070;50.794;7.054;2023-07-29T01:04:36;100012.53;;;19.53;100.00
72925;BME280;61070;50.794;7.054;2023-07-29T01:05:06;100013.59;;;19.51;100.00
72925;BME280;61070;50.794;7.054;2023-07-29T01:06:28;100009.28;;;19.48;100.00
72925;BME280;61070;50.794;7.054;2023-07-29T01:07:57;100006.66;;;19.46;100.00
72925;BME280;61070;50.794;7.054;2023-07-29T01:08:40;100003.81;;;19.49;100.00
72925;BME280;61070;50.794;7.054;2023-07-29T01:11:37;100003.19;;;19.44;100.00
72925;BME280;61070;50.794;7.054;2023-07-29T01:12:27;100007.72;;;19.44;100.00
72925;BME280;61070;50.794;7.054;2023-07-29T01:13:24;100011.34;;;19.43;100.00
72925;BME280;61070;50.794;7.054;2023-07-29T01:14:18;100008.78;;;19.41;100.00
72925;BME280;61070;50.794;7.054;2023-07-29T01:15:14;100008.78;;;19.41;100.00
72925;BME280;61070;50.794;7.054;2023-07-29T01:15:53;100010.50;;;19.42;100.00
72925;BME280;61070;50.794;7.054;2023-07-29T01:16:50;100014.13;;;19.41;100.00
72925;BME280;61070;50.794;7.054;2023-07-29T01:17:23;100001.66;;;19.40;100.00
72925;BME280;61070;50.794;7.054;2023-07-29T01:17:58;100005.31;;;19.39;100.00
72925;BME280;61070;50.794;7.054;2023-07-29T01:18:35;100006.19;;;19.40;100.00
72925;BME280;61070;50.794;7.054;2023-07-29T01:19:06;100008.88;;;19.40;100.00
72925;BME280;61070;50.794;7.054;2023-07-29T01:20:07;100003.41;;;19.41;100.00
72925;BME280;61070;50.794;7.054;2023-07-29T01:20:40;100002.63;;;19.39;100.00
72925;BME280;61070;50.794;7.054;2023-07-29T01:21:11;100003.19;;;19.44;100.00
72925;BME280;61070;50.794;7.054;2023-07-29T01:21:41;100002.53;;;19.41;100.00
72925;BME280;61070;50.794;7.054;2023-07-29T01:22:12;99998.03;;;19.41;100.00
72925;BME280;61070;50.794;7.054;2023-07-29T01:22:43;99999.84;;;19.41;100.00
72925;BME280;61070;50.794;7.054;2023-07-29T01:23:15;99998.22;;;19.38;100.00
72925;BME280;61070;50.794;7.054;2023-07-29T01:23:46;99999.16;;;19.37;100.00
72925;BME280;61070;50.794;7.054;2023-07-29T01:24:16;100001.84;;;19.37;100.00
72925;BME280;61070;50.794;7.054;2023-07-29T01:24:46;99997.34;;;19.38;100.00
72925;BME280;61070;50.794;7.054;2023-07-29T01:25:16;99995.63;;;19.37;100.00
72925;BME280;61070;50.794;7.054;2023-07-29T01:25:47;99997.94;;;19.43;100.00
72925;BME280;61070;50.794;7.054;2023-07-29T01:26:17;99998.88;;;19.42;100.00
72925;BME280;61070;50.794;7.054;2023-07-29T01:26:47;99998.13;;;19.40;100.00
72925;BME280;61070;50.794;7.054;2023-07-29T01:27:17;100000.03;;;19.38;100.00
72925;BME280;61070;50.794;7.054;2023-07-29T01:27:50;99994.66;;;19.38;100.00
72925;BME280;61070;50.794;7.054;2023-07-29T01:28:23;100003.59;;;19.38;100.00
72925;BME280;61070;50.794;7.054;2023-07-29T01:28:56;100002.72;;;19.38;100.00
72925;BME280;61070;50.794;7.054;2023-07-29T01:29:27;100000.03;;;19.38;100.00
72925;BME280;61070;50.794;7.054;2023-07-29T01:29:58;99997.16;;;19.41;100.00
72925;BME280;61070;50.794;7.054;2023-07-29T01:30:33;99993.59;;;19.40;100.00
72925;BME280;61070;50.794;7.054;2023-07-29T01:31:27;99989.97;;;19.41;100.00
72925;BME280;61070;50.794;7.054;2023-07-29T01:32:10;99991.78;;;19.41;100.00
72925;BME280;61070;50.794;7.054;2023-07-29T01:32:48;99998.97;;;19.40;100.00
72925;BME280;61070;50.794;7.054;2023-07-29T01:33:26;100000.81;;;19.40;100.00
72925;BME280;61070;50.794;7.054;2023-07-29T01:33:59;99991.88;;;19.39;100.00
72925;BME280;61070;50.794;7.054;2023-07-29T01:35:31;99994.56;;;19.39;100.00
72925;BME280;61070;50.794;7.054;2023-07-29T01:35:58;99994.56;;;19.39;100.00
72925;BME280;61070;50.794;7.054;2023-07-29T01:36:33;99991.13;;;19.37;100.00
72925;BME280;61070;50.794;7.054;2023-07-29T01:37:06;99990.16;;;19.38;100.00
72925;BME280;61070;50.794;7.054;2023-07-29T01:37:39;99989.19;;;19.39;100.00
72925;BME280;61070;50.794;7.054;2023-07-29T01:38:15;99987.28;;;19.41;100.00
72925;BME280;61070;50.794;7.054;2023-07-29T01:38:48;99990.06;;;19.40;100.00
72925;BME280;61070;50.794;7.054;2023-07-29T01:39:20;99989.09;;;19.41;100.00
72925;BME280;61070;50.794;7.054;2023-07-29T01:39:54;99989.19;;;19.39;100.00
72925;BME280;61070;50.794;7.054;2023-07-29T01:40:27;99991.88;;;19.39;100.00
72925;BME280;61070;50.794;7.054;2023-07-29T01:41:01;99991.78;;;19.41;100.00
72925;BME280;61070;50.794;7.054;2023-07-29T01:41:32;99985.44;;;19.42;100.00
72925;BME280;61070;50.794;7.054;2023-07-29T01:42:03;99989.00;;;19.42;100.00
72925;BME280;61070;50.794;7.054;2023-07-29T01:42:34;99992.66;;;19.41;100.00
72925;BME280;61070;50.794;7.054;2023-07-29T01:43:04;99992.66;;;19.41;100.00
72925;BME280;61070;50.794;7.054;2023-07-29T01:43:36;99990.94;;;19.40;100.00
72925;BME280;61070;50.794;7.054;2023-07-29T01:44:13;99995.25;;;19.43;100.00
72925;BME280;61070;50.794;7.054;2023-07-29T01:44:44;99989.00;;;19.42;100.00
72925;BME280;61070;50.794;7.054;2023-07-29T01:45:14;99991.69;;;19.42;100.00
72925;BME280;61070;50.794;7.054;2023-07-29T01:45:45;99997.94;;;19.43;100.00
72925;BME280;61070;50.794;7.054;2023-07-29T01:46:16;99996.09;;;19.43;100.00
72925;BME280;61070;50.794;7.054;2023-07-29T01:46:46;99989.78;;;19.44;100.00
72925;BME280;61070;50.794;7.054;2023-07-29T01:47:17;99993.31;;;19.45;100.00
72925;BME280;61070;50.794;7.054;2023-07-29T01:47:47;99995.16;;;19.44;100.00
72925;BME280;61070;50.794;7.054;2023-07-29T01:48:17;99988.03;;;19.43;100.00
72925;BME280;61070;50.794;7.054;2023-07-29T01:48:48;99991.59;;;19.44;100.00
72925;BME280;61070;50.794;7.054;2023-07-29T01:49:18;99996.97;;;19.44;100.00
72925;BME280;61070;50.794;7.054;2023-07-29T01:49:48;99988.03;;;19.43;100.00
72925;BME280;61070;50.794;7.054;2023-07-29T01:50:19;99987.28;;;19.41;100.00
72925;BME280;61070;50.794;7.054;2023-07-29T01:50:49;99997.72;;;19.46;100.00
72925;BME280;61070;50.794;7.054;2023-07-29T01:51:20;99987.19;;;19.43;100.00
72925;BME280;61070;50.794;7.054;2023-07-29T01:51:51;99986.31;;;19.42;100.00
72925;BME280;61070;50.794;7.054;2023-07-29T01:52:21;99986.13;;;19.45;100.00
72925;BME280;61070;50.794;7.054;2023-07-29T01:52:52;99977.19;;;19.45;100.00
72925;BME280;61070;50.794;7.054;2023-07-29T01:53:23;99990.53;;;19.46;100.00
72925;BME280;61070;50.794;7.054;2023-07-29T01:53:53;99976.16;;;19.47;100.00
72925;BME280;61070;50.794;7.054;2023-07-29T01:54:25;99980.31;;;19.53;100.00
72925;BME280;61070;50.794;7.054;2023-07-29T01:54:55;99979.78;;;19.46;100.00
72925;BME280;61070;50.794;7.054;2023-07-29T01:55:26;99980.00;;;19.43;100.00
72925;BME280;61070;50.794;7.054;2023-07-29T01:55:56;99980.94;;;19.42;100.00
72925;BME280;61070;50.794;7.054;2023-07-29T01:56:27;99974.50;;;19.45;100.00
72925;BME280;61070;50.794;7.054;2023-07-29T01:56:57;99970.19;;;19.42;100.00
72925;BME280;61070;50.794;7.054;2023-07-29T01:57:27;99976.34;;;19.44;100.00
72925;BME280;61070;50.794;7.054;2023-07-29T01:57:58;99981.72;;;19.44;100.00
72925;BME280;61070;50.794;7.054;2023-07-29T01:58:28;99981.91;;;19.41;100.00
72925;BME280;61070;50.794;7.054;2023-07-29T01:58:58;99982.78;;;19.42;100.00
72925;BME280;61070;50.794;7.054;2023-07-29T01:59:29;99973.56;;;19.46;100.00
72925;BME280;61070;50.794;7.054;2023-07-29T01:59:59;99979.13;;;19.43;100.00
72925;BME280;61070;50.794;7.054;2023-07-29T02:00:29;99972.88;;;19.42;100.00
72925;BME280;61070;50.794;7.054;2023-07-29T02:01:00;99980.19;;;19.40;100.00
72925;BME280;61070;50.794;7.054;2023-07-29T02:01:30;99981.91;;;19.41;100.00
72925;BME280;61070;50.794;7.054;2023-07-29T02:02:01;99981.91;;;19.41;100.00
72925;BME280;61070;50.794;7.054;2023-07-29T02:02:31;99976.63;;;19.40;100.00
72925;BME280;61070;50.794;7.054;2023-07-29T02:03:02;99972.22;;;19.39;100.00
72925;BME280;61070;50.794;7.054;2023-07-29T02:03:32;99972.22;;;19.39;100.00
72925;BME280;61070;50.794;7.054;2023-07-29T02:04:03;99976.63;;;19.40;100.00
72925;BME280;61070;50.794;7.054;2023-07-29T02:04:33;99969.44;;;19.40;100.00
72925;BME280;61070;50.794;7.054;2023-07-29T02:05:03;99973.94;;;19.40;100.00
72925;BME280;61070;50.794;7.054;2023-07-29T02:05:34;99967.72;;;19.39;100.00
72925;BME280;61070;50.794;7.054;2023-07-29T02:06:04;99983.53;;;19.44;100.00
72925;BME280;61070;50.794;7.054;2023-07-29T02:06:34;99967.88;;;19.36;100.00
72925;BME280;61070;50.794;7.054;2023-07-29T02:07:05;99972.31;;;19.37;100.00
72925;BME280;61070;50.794;7.054;2023-07-29T02:07:35;99969.69;;;19.36;100.00
72925;BME280;61070;50.794;7.054;2023-07-29T02:08:05;99969.69;;;19.36;100.00
72925;BME280;61070;50.794;7.054;2023-07-29T02:08:36;99971.50;;;19.35;100.00
72925;BME280;61070;50.794;7.054;2023-07-29T02:09:06;99968.91;;;19.34;100.00
72925;BME280;61070;50.794;7.054;2023-07-29T02:09:36;99975.16;;;19.34;100.00
72925;BME280;61070;50.794;7.054;2023-07-29T02:10:07;99971.50;;;19.35;100.00
72925;BME280;61070;50.794;7.054;2023-07-29T02:10:37;99959.91;;;19.35;100.00
72925;BME280;61070;50.794;7.054;2023-07-29T02:11:08;99968.81;;;19.35;100.00
72925;BME280;61070;50.794;7.054;2023-07-29T02:11:38;99963.56;;;19.34;100.00
72925;BME280;61070;50.794;7.054;2023-07-29T02:12:08;99972.56;;;19.33;100.00
72925;BME280;61070;50.794;7.054;2023-07-29T02:12:39;99965.38;;;19.33;100.00
72925;BME280;61070;50.794;7.054;2023-07-29T02:13:09;99973.34;;;19.35;100.00
72925;BME280;61070;50.794;7.054;2023-07-29T02:13:39;99969.69;;;19.36;100.00
72925;BME280;61070;50.794;7.054;2023-07-29T02:14:09;99958.69;;;19.40;100.00
72925;BME280;61070;50.794;7.054;2023-07-29T02:14:40;99960.59;;;19.38;100.00
72925;BME280;61070;50.794;7.054;2023-07-29T02:15:10;99965.78;;;19.41;100.00
72925;BME280;61070;50.794;7.054;2023-07-29T02:15:40;99962.34;;;19.39;100.00
72925;BME280;61070;50.794;7.054;2023-07-29T02:16:11;99965.13;;;19.38;100.00
72925;BME280;61070;50.794;7.054;2023-07-29T02:16:41;99961.47;;;19.39;100.00
72925;BME280;61070;50.794;7.054;2023-07-29T02:17:11;99965.97;;;19.38;100.00
72925;BME280;61070;50.794;7.054;2023-07-29T02:17:42;99962.34;;;19.39;100.00
72925;BME280;61070;50.794;7.054;2023-07-29T02:18:12;99967.72;;;19.39;100.00
72925;BME280;61070;50.794;7.054;2023-07-29T02:18:42;99968.47;;;19.41;100.00
72925;BME280;61070;50.794;7.054;2023-07-29T02:19:13;99962.13;;;19.42;100.00
72925;BME280;61070;50.794;7.054;2023-07-29T02:19:43;99969.44;;;19.40;100.00
72925;BME280;61070;50.794;7.054;2023-07-29T02:20:13;99971.16;;;19.41;100.00
72925;BME280;61070;50.794;7.054;2023-07-29T02:20:44;99974.81;;;19.40;100.00
72925;BME280;61070;50.794;7.054;2023-07-29T02:21:19;99977.50;;;19.40;100.00
72925;BME280;61070;50.794;7.054;2023-07-29T02:21:49;99978.53;;;19.38;100.00
72925;BME280;61070;50.794;7.054;2023-07-29T02:22:19;99980.38;;;19.37;100.00
72925;BME280;61070;50.794;7.054;2023-07-29T02:22:49;99979.41;;;19.38;100.00
72925;BME280;61070;50.794;7.054;2023-07-29T02:23:20;99980.38;;;19.37;100.00
72925;BME280;61070;50.794;7.054;2023-07-29T02:23:50;99979.41;;;19.38;100.00
72925;BME280;61070;50.794;7.054;2023-07-29T02:24:20;99976.03;;;19.35;100.00
72925;BME280;61070;50.794;7.054;2023-07-29T02:24:51;99987.47;;;19.38;100.00
72925;BME280;61070;50.794;7.054;2023-07-29T02:25:21;99995.25;;;19.43;100.00
72925;BME280;61070;50.794;7.054;2023-07-29T02:25:51;99982.97;;;19.39;100.00
72925;BME280;61070;50.794;7.054;2023-07-29T02:26:22;99985.25;;;19.45;100.00
72925;BME280;61070;50.794;7.054;2023-07-29T02:26:52;99981.81;;;19.43;100.00
72925;BME280;61070;50.794;7.054;2023-07-29T02:27:23;99973.75;;;19.43;100.00
72925;BME280;61070;50.794;7.054;2023-07-29T02:27:56;99981.22;;;19.38;100.00
72925;BME280;61070;50.794;7.054;2023-07-29T02:28:26;99988.03;;;19.43;100.00
72925;BME280;61070;50.794;7.054;2023-07-29T02:28:56;99982.25;;;19.35;100.00
72925;BME280;61070;50.794;7.054;2023-07-29T02:29:26;99982.19;;;19.37;100.00
72925;BME280;61070;50.794;7.054;2023-07-29T02:29:57;99976.34;;;19.44;100.00
72925;BME280;61070;50.794;7.054;2023-07-29T02:30:27;99975.28;;;19.47;100.00
72925;BME280;61070;50.794;7.054;2023-07-29T02:31:20;99966.56;;;19.43;100.00
72925;BME280;61070;50.794;7.054;2023-07-29T02:31:51;99972.03;;;19.42;100.00
72925;BME280;61070;50.794;7.054;2023-07-29T02:32:21;99966.84;;;19.39;100.00
72925;BME280;61070;50.794;7.054;2023-07-29T02:32:52;99962.25;;;19.41;100.00
72925;BME280;61070;50.794;7.054;2023-07-29T02:33:22;99965.88;;;19.40;100.00
72925;BME280;61070;50.794;7.054;2023-07-29T02:33:52;99961.47;;;19.39;100.00
72925;BME280;61070;50.794;7.054;2023-07-29T02:34:22;99964.25;;;19.37;100.00
72925;BME280;61070;50.794;7.054;2023-07-29T02:34:53;99973.19;;;19.38;100.00
72925;BME280;61070;50.794;7.054;2023-07-29T02:35:23;99969.69;;;19.36;100.00
72925;BME280;61070;50.794;7.054;2023-07-29T02:35:53;99967.09;;;19.34;100.00
72925;BME280;61070;50.794;7.054;2023-07-29T02:36:23;99974.19;;;19.35;100.00
72925;BME280;61070;50.794;7.054;2023-07-29T02:36:54;99976.13;;;19.33;100.00
72925;BME280;61070;50.794;7.054;2023-07-29T02:37:24;99978.81;;;19.33;100.00
72925;BME280;61070;50.794;7.054;2023-07-29T02:37:54;99986.09;;;19.31;100.00
72925;BME280;61070;50.794;7.054;2023-07-29T02:38:25;99974.59;;;19.29;100.00
72925;BME280;61070;50.794;7.054;2023-07-29T02:38:55;99982.63;;;19.29;100.00
72925;BME280;61070;50.794;7.054;2023-07-29T02:39:25;99979.94;;;19.29;100.00
72925;BME280;61070;50.794;7.054;2023-07-29T02:39:55;99983.50;;;19.30;100.00
72925;BME280;61070;50.794;7.054;2023-07-29T02:40:26;99993.38;;;19.29;100.00
72925;BME280;61070;50.794;7.054;2023-07-29T02:40:56;99990.69;;;19.29;100.00
72925;BME280;61070;50.794;7.054;2023-07-29T02:41:27;99989.75;;;19.30;100.00
72925;BME280;61070;50.794;7.054;2023-07-29T02:41:57;99992.53;;;19.29;100.00
72925;BME280;61070;50.794;7.054;2023-07-29T02:42:28;99992.53;;;19.29;100.00
72925;BME280;61070;50.794;7.054;2023-07-29T02:42:58;99987.25;;;19.27;100.00
72925;BME280;61070;50.794;7.054;2023-07-29T02:43:29;99989.94;;;19.27;100.00
72925;BME280;61070;50.794;7.054;2023-07-29T02:43:59;99991.66;;;19.28;100.00
72925;BME280;61070;50.794;7.054;2023-07-29T02:44:29;99990.09;;;19.24;100.00
72925;BME280;61070;50.794;7.054;2023-07-29T02:44:59;99992.00;;;19.22;100.00
72925;BME280;61070;50.794;7.054;2023-07-29T02:45:30;99983.84;;;19.24;100.00
72925;BME280;61070;50.794;7.054;2023-07-29T02:46:00;99988.34;;;19.23;100.00
72925;BME280;61070;50.794;7.054;2023-07-29T02:46:30;99996.41;;;19.23;100.00
72925;BME280;61070;50.794;7.054;2023-07-29T02:47:00;100002.75;;;19.22;100.00
72925;BME280;61070;50.794;7.054;2023-07-29T02:47:31;99998.25;;;19.23;100.00
72925;BME280;61070;50.794;7.054;2023-07-29T02:48:01;100009.84;;;19.23;100.00
72925;BME280;61070;50.794;7.054;2023-07-29T02:48:31;100005.44;;;19.22;100.00
72925;BME280;61070;50.794;7.054;2023-07-29T02:49:02;100003.59;;;19.23;100.00